sensor_id;sensor_type;location;lat;lon;timestamp;P1;durP1;ratioP1;P2;durP2;ratioP2
29196;SDS011;62796;42.654;23.316;2024-02-14T00:00:37;10.93;;;7.63;;
29196;SDS011;62796;42.654;23.316;2024-02-14T00:03:03;11.40;;;7.53;;
29196;SDS011;62796;42.654;23.316;2024-02-14T00:05:28;11.00;;;7.00;;
29196;SDS011;62796;42.654;23.316;2024-02-14T00:07:54;9.88;;;7.32;;
29196;SDS011;62796;42.654;23.316;2024-02-14T00:10:19;8.32;;;6.72;;
29196;SDS011;62796;42.654;23.316;2024-02-14T00:12:45;9.63;;;7.10;;
29196;SDS011;62796;42.654;23.316;2024-02-14T00:15:11;11.00;;;7.57;;
29196;SDS011;62796;42.654;23.316;2024-02-14T00:17:37;8.38;;;6.72;;
29196;SDS011;62796;42.654;23.316;2024-02-14T00:20:02;9.88;;;7.20;;
29196;SDS011;62796;42.654;23.316;2024-02-14T00:22:29;9.55;;;7.40;;
29196;SDS011;62796;42.654;23.316;2024-02-14T00:24:54;11.18;;;7.43;;
29196;SDS011;62796;42.654;23.316;2024-02-14T00:27:20;11.65;;;7.68;;
29196;SDS011;62796;42.654;23.316;2024-02-14T00:29:45;10.60;;;7.63;;
29196;SDS011;62796;42.654;23.316;2024-02-14T00:32:12;10.35;;;6.97;;
29196;SDS011;62796;42.654;23.316;2024-02-14T00:34:38;12.23;;;7.47;;
29196;SDS011;62796;42.654;23.316;2024-02-14T00:37:03;11.90;;;8.50;;
29196;SDS011;62796;42.654;23.316;2024-02-14T00:39:29;11.43;;;7.47;;
29196;SDS011;62796;42.654;23.316;2024-02-14T00:41:54;11.35;;;8.48;;
29196;SDS011;62796;42.654;23.316;2024-02-14T00:44:21;12.98;;;8.27;;
29196;SDS011;62796;42.654;23.316;2024-02-14T00:46:46;10.57;;;7.88;;
29196;SDS011;62796;42.654;23.316;2024-02-14T00:49:13;11.13;;;8.00;;
29196;SDS011;62796;42.654;23.316;2024-02-14T00:51:38;10.90;;;7.90;;
29196;SDS011;62796;42.654;23.316;2024-02-14T00:54:05;11.88;;;8.50;;
29196;SDS011;62796;42.654;23.316;2024-02-14T00:56:33;11.25;;;7.80;;
29196;SDS011;62796;42.654;23.316;2024-02-14T00:58:59;10.15;;;7.55;;
29196;SDS011;62796;42.654;23.316;2024-02-14T01:01:25;12.27;;;7.75;;
29196;SDS011;62796;42.654;23.316;2024-02-14T01:03:51;11.85;;;8.48;;
29196;SDS011;62796;42.654;23.316;2024-02-14T01:06:16;11.30;;;8.32;;
29196;SDS011;62796;42.654;23.316;2024-02-14T01:08:43;10.43;;;7.88;;
29196;SDS011;62796;42.654;23.316;2024-02-14T01:11:09;12.02;;;8.35;;
29196;SDS011;62796;42.654;23.316;2024-02-14T01:13:34;13.45;;;7.80;;
29196;SDS011;62796;42.654;23.316;2024-02-14T01:16:00;11.70;;;9.00;;
29196;SDS011;62796;42.654;23.316;2024-02-14T01:18:25;11.10;;;8.45;;
29196;SDS011;62796;42.654;23.316;2024-02-14T01:20:50;11.05;;;9.07;;
29196;SDS011;62796;42.654;23.316;2024-02-14T01:23:16;12.40;;;9.07;;
29196;SDS011;62796;42.654;23.316;2024-02-14T01:25:41;12.20;;;8.52;;
29196;SDS011;62796;42.654;23.316;2024-02-14T01:28:07;13.07;;;8.63;;
29196;SDS011;62796;42.654;23.316;2024-02-14T01:30:33;15.07;;;9.32;;
29196;SDS011;62796;42.654;23.316;2024-02-14T01:33:01;11.63;;;8.02;;
29196;SDS011;62796;42.654;23.316;2024-02-14T01:35:28;12.23;;;8.30;;
29196;SDS011;62796;42.654;23.316;2024-02-14T01:37:54;12.85;;;8.85;;
29196;SDS011;62796;42.654;23.316;2024-02-14T01:40:19;11.02;;;8.85;;
29196;SDS011;62796;42.654;23.316;2024-02-14T01:42:45;12.85;;;9.15;;
29196;SDS011;62796;42.654;23.316;2024-02-14T01:45:11;12.82;;;8.75;;
29196;SDS011;62796;42.654;23.316;2024-02-14T01:47:37;12.77;;;8.80;;
29196;SDS011;62796;42.654;23.316;2024-02-14T01:50:05;13.18;;;9.05;;
29196;SDS011;62796;42.654;23.316;2024-02-14T01:52:33;11.20;;;8.73;;
29196;SDS011;62796;42.654;23.316;2024-02-14T01:55:00;15.15;;;9.38;;
29196;SDS011;62796;42.654;23.316;2024-02-14T01:57:27;12.02;;;9.13;;
29196;SDS011;62796;42.654;23.316;2024-02-14T01:59:53;13.50;;;8.80;;
29196;SDS011;62796;42.654;23.316;2024-02-14T02:02:21;13.23;;;9.23;;
29196;SDS011;62796;42.654;23.316;2024-02-14T02:04:47;10.73;;;8.52;;
29196;SDS011;62796;42.654;23.316;2024-02-14T02:07:12;12.60;;;9.10;;
29196;SDS011;62796;42.654;23.316;2024-02-14T02:09:38;13.00;;;9.15;;
29196;SDS011;62796;42.654;23.316;2024-02-14T02:12:04;11.75;;;8.95;;
29196;SDS011;62796;42.654;23.316;2024-02-14T02:14:32;13.90;;;9.32;;
29196;SDS011;62796;42.654;23.316;2024-02-14T02:16:58;11.80;;;8.77;;
29196;SDS011;62796;42.654;23.316;2024-02-14T02:19:24;12.90;;;9.07;;
29196;SDS011;62796;42.654;23.316;2024-02-14T02:21:49;12.13;;;8.30;;
29196;SDS011;62796;42.654;23.316;2024-02-14T02:24:15;14.55;;;9.45;;
29196;SDS011;62796;42.654;23.316;2024-02-14T02:26:40;13.40;;;8.90;;
29196;SDS011;62796;42.654;23.316;2024-02-14T02:29:05;12.00;;;8.05;;
29196;SDS011;62796;42.654;23.316;2024-02-14T02:31:31;15.23;;;9.40;;
29196;SDS011;62796;42.654;23.316;2024-02-14T02:33:57;14.18;;;9.38;;
29196;SDS011;62796;42.654;23.316;2024-02-14T02:36:22;13.95;;;9.25;;
29196;SDS011;62796;42.654;23.316;2024-02-14T02:38:49;11.80;;;8.75;;
29196;SDS011;62796;42.654;23.316;2024-02-14T02:41:15;14.02;;;9.20;;
29196;SDS011;62796;42.654;23.316;2024-02-14T02:43:40;10.80;;;8.43;;
29196;SDS011;62796;42.654;23.316;2024-02-14T02:46:08;13.82;;;8.90;;
29196;SDS011;62796;42.654;23.316;2024-02-14T02:48:34;11.88;;;8.90;;
29196;SDS011;62796;42.654;23.316;2024-02-14T02:50:59;14.10;;;9.35;;
29196;SDS011;62796;42.654;23.316;2024-02-14T02:53:25;12.40;;;9.38;;
29196;SDS011;62796;42.654;23.316;2024-02-14T02:55:50;18.60;;;10.00;;
29196;SDS011;62796;42.654;23.316;2024-02-14T02:58:16;17.55;;;12.02;;
29196;SDS011;62796;42.654;23.316;2024-02-14T03:00:42;15.43;;;9.63;;
29196;SDS011;62796;42.654;23.316;2024-02-14T03:03:08;12.15;;;9.13;;
29196;SDS011;62796;42.654;23.316;2024-02-14T03:05:33;13.48;;;9.27;;
29196;SDS011;62796;42.654;23.316;2024-02-14T03:07:59;16.05;;;9.60;;
29196;SDS011;62796;42.654;23.316;2024-02-14T03:10:25;13.05;;;8.95;;
29196;SDS011;62796;42.654;23.316;2024-02-14T03:12:51;11.90;;;8.75;;
29196;SDS011;62796;42.654;23.316;2024-02-14T03:15:17;13.00;;;9.30;;
29196;SDS011;62796;42.654;23.316;2024-02-14T03:17:44;18.73;;;10.32;;
29196;SDS011;62796;42.654;23.316;2024-02-14T03:20:11;12.57;;;9.18;;
29196;SDS011;62796;42.654;23.316;2024-02-14T03:22:43;14.43;;;9.90;;
29196;SDS011;62796;42.654;23.316;2024-02-14T03:25:12;12.82;;;9.20;;
29196;SDS011;62796;42.654;23.316;2024-02-14T03:27:48;12.75;;;9.00;;
29196;SDS011;62796;42.654;23.316;2024-02-14T03:30:17;15.43;;;9.77;;
29196;SDS011;62796;42.654;23.316;2024-02-14T03:32:43;14.82;;;9.80;;
29196;SDS011;62796;42.654;23.316;2024-02-14T03:35:09;13.90;;;9.60;;
29196;SDS011;62796;42.654;23.316;2024-02-14T03:37:36;13.05;;;9.15;;
29196;SDS011;62796;42.654;23.316;2024-02-14T03:40:04;14.02;;;9.90;;
29196;SDS011;62796;42.654;23.316;2024-02-14T03:42:30;15.15;;;9.40;;
29196;SDS011;62796;42.654;23.316;2024-02-14T03:44:55;13.00;;;9.07;;
29196;SDS011;62796;42.654;23.316;2024-02-14T03:47:27;11.45;;;8.55;;
29196;SDS011;62796;42.654;23.316;2024-02-14T03:49:54;16.85;;;9.32;;
29196;SDS011;62796;42.654;23.316;2024-02-14T03:52:19;12.70;;;8.77;;
29196;SDS011;62796;42.654;23.316;2024-02-14T03:54:47;16.20;;;9.63;;
29196;SDS011;62796;42.654;23.316;2024-02-14T03:57:12;14.43;;;8.98;;
29196;SDS011;62796;42.654;23.316;2024-02-14T03:59:38;16.00;;;9.93;;
29196;SDS011;62796;42.654;23.316;2024-02-14T04:02:04;11.65;;;8.77;;
29196;SDS011;62796;42.654;23.316;2024-02-14T04:04:31;15.07;;;9.88;;
29196;SDS011;62796;42.654;23.316;2024-02-14T04:06:58;15.90;;;10.32;;
29196;SDS011;62796;42.654;23.316;2024-02-14T04:09:26;13.93;;;9.15;;
29196;SDS011;62796;42.654;23.316;2024-02-14T04:11:51;15.48;;;9.95;;
29196;SDS011;62796;42.654;23.316;2024-02-14T04:14:17;13.68;;;9.32;;
29196;SDS011;62796;42.654;23.316;2024-02-14T04:16:42;15.77;;;10.13;;
29196;SDS011;62796;42.654;23.316;2024-02-14T04:19:08;14.25;;;9.73;;
29196;SDS011;62796;42.654;23.316;2024-02-14T04:21:35;13.10;;;9.40;;
29196;SDS011;62796;42.654;23.316;2024-02-14T04:24:02;17.02;;;9.57;;
29196;SDS011;62796;42.654;23.316;2024-02-14T04:26:28;16.75;;;10.63;;
29196;SDS011;62796;42.654;23.316;2024-02-14T04:28:53;15.43;;;10.40;;
29196;SDS011;62796;42.654;23.316;2024-02-14T04:31:19;16.55;;;11.00;;
29196;SDS011;62796;42.654;23.316;2024-02-14T04:33:44;19.15;;;10.25;;
29196;SDS011;62796;42.654;23.316;2024-02-14T04:36:15;17.65;;;9.88;;
29196;SDS011;62796;42.654;23.316;2024-02-14T04:38:41;16.58;;;10.95;;
29196;SDS011;62796;42.654;23.316;2024-02-14T04:41:06;18.23;;;10.10;;
29196;SDS011;62796;42.654;23.316;2024-02-14T04:43:32;16.25;;;10.68;;
29196;SDS011;62796;42.654;23.316;2024-02-14T04:45:57;15.80;;;11.23;;
29196;SDS011;62796;42.654;23.316;2024-02-14T04:48:23;14.55;;;10.70;;
29196;SDS011;62796;42.654;23.316;2024-02-14T04:50:48;15.38;;;11.18;;
29196;SDS011;62796;42.654;23.316;2024-02-14T04:53:14;17.80;;;11.40;;
29196;SDS011;62796;42.654;23.316;2024-02-14T04:55:41;15.88;;;11.18;;
29196;SDS011;62796;42.654;23.316;2024-02-14T04:58:06;19.50;;;11.68;;
29196;SDS011;62796;42.654;23.316;2024-02-14T05:00:32;16.13;;;11.13;;
29196;SDS011;62796;42.654;23.316;2024-02-14T05:02:58;18.08;;;11.35;;
29196;SDS011;62796;42.654;23.316;2024-02-14T05:05:23;15.80;;;11.82;;
29196;SDS011;62796;42.654;23.316;2024-02-14T05:07:48;17.52;;;12.23;;
29196;SDS011;62796;42.654;23.316;2024-02-14T05:10:14;24.25;;;12.35;;
29196;SDS011;62796;42.654;23.316;2024-02-14T05:12:40;20.13;;;13.82;;
29196;SDS011;62796;42.654;23.316;2024-02-14T05:15:06;20.73;;;13.60;;
29196;SDS011;62796;42.654;23.316;2024-02-14T05:17:31;27.13;;;13.27;;
29196;SDS011;62796;42.654;23.316;2024-02-14T05:19:57;22.15;;;12.52;;
29196;SDS011;62796;42.654;23.316;2024-02-14T05:22:22;22.60;;;13.55;;
29196;SDS011;62796;42.654;23.316;2024-02-14T05:24:48;21.38;;;12.90;;
29196;SDS011;62796;42.654;23.316;2024-02-14T05:27:13;17.80;;;12.23;;
29196;SDS011;62796;42.654;23.316;2024-02-14T05:29:39;19.33;;;13.00;;
29196;SDS011;62796;42.654;23.316;2024-02-14T05:32:04;18.33;;;12.93;;
29196;SDS011;62796;42.654;23.316;2024-02-14T05:34:30;23.90;;;14.48;;
29196;SDS011;62796;42.654;23.316;2024-02-14T05:36:55;20.67;;;13.77;;
29196;SDS011;62796;42.654;23.316;2024-02-14T05:39:21;21.17;;;13.98;;
29196;SDS011;62796;42.654;23.316;2024-02-14T05:41:47;18.95;;;13.30;;
29196;SDS011;62796;42.654;23.316;2024-02-14T05:44:14;21.33;;;13.55;;
29196;SDS011;62796;42.654;23.316;2024-02-14T05:46:39;24.65;;;13.20;;
29196;SDS011;62796;42.654;23.316;2024-02-14T05:49:04;20.10;;;12.95;;
29196;SDS011;62796;42.654;23.316;2024-02-14T05:51:31;20.60;;;12.60;;
29196;SDS011;62796;42.654;23.316;2024-02-14T05:53:56;21.90;;;13.77;;
29196;SDS011;62796;42.654;23.316;2024-02-14T05:56:22;21.58;;;13.48;;
29196;SDS011;62796;42.654;23.316;2024-02-14T05:58:47;27.60;;;14.68;;
29196;SDS011;62796;42.654;23.316;2024-02-14T06:01:13;22.13;;;13.82;;
29196;SDS011;62796;42.654;23.316;2024-02-14T06:03:38;20.33;;;13.10;;
29196;SDS011;62796;42.654;23.316;2024-02-14T06:06:07;19.50;;;12.95;;
29196;SDS011;62796;42.654;23.316;2024-02-14T06:08:32;20.42;;;13.40;;
29196;SDS011;62796;42.654;23.316;2024-02-14T06:10:57;18.60;;;12.93;;
29196;SDS011;62796;42.654;23.316;2024-02-14T06:13:23;24.15;;;13.13;;
29196;SDS011;62796;42.654;23.316;2024-02-14T06:15:48;19.33;;;13.02;;
29196;SDS011;62796;42.654;23.316;2024-02-14T06:18:14;19.27;;;12.85;;
29196;SDS011;62796;42.654;23.316;2024-02-14T06:20:39;20.45;;;12.48;;
29196;SDS011;62796;42.654;23.316;2024-02-14T06:23:05;18.90;;;12.75;;
29196;SDS011;62796;42.654;23.316;2024-02-14T06:25:33;18.88;;;13.35;;
29196;SDS011;62796;42.654;23.316;2024-02-14T06:27:58;25.98;;;12.65;;
29196;SDS011;62796;42.654;23.316;2024-02-14T06:30:23;25.92;;;12.70;;
29196;SDS011;62796;42.654;23.316;2024-02-14T06:32:49;24.20;;;13.65;;
29196;SDS011;62796;42.654;23.316;2024-02-14T06:35:14;19.10;;;12.60;;
29196;SDS011;62796;42.654;23.316;2024-02-14T06:37:43;23.17;;;13.55;;
29196;SDS011;62796;42.654;23.316;2024-02-14T06:40:09;21.17;;;13.60;;
29196;SDS011;62796;42.654;23.316;2024-02-14T06:42:35;23.17;;;12.98;;
29196;SDS011;62796;42.654;23.316;2024-02-14T06:45:01;25.63;;;12.32;;
29196;SDS011;62796;42.654;23.316;2024-02-14T06:47:26;17.48;;;11.70;;
29196;SDS011;62796;42.654;23.316;2024-02-14T06:49:55;16.13;;;11.38;;
29196;SDS011;62796;42.654;23.316;2024-02-14T06:52:20;18.73;;;11.98;;
29196;SDS011;62796;42.654;23.316;2024-02-14T06:54:46;17.52;;;12.05;;
29196;SDS011;62796;42.654;23.316;2024-02-14T06:57:13;22.58;;;12.40;;
29196;SDS011;62796;42.654;23.316;2024-02-14T06:59:39;28.60;;;12.40;;
29196;SDS011;62796;42.654;23.316;2024-02-14T07:02:04;19.30;;;12.02;;
29196;SDS011;62796;42.654;23.316;2024-02-14T07:04:31;18.08;;;11.45;;
29196;SDS011;62796;42.654;23.316;2024-02-14T07:06:56;20.50;;;12.18;;
29196;SDS011;62796;42.654;23.316;2024-02-14T07:09:22;39.45;;;13.80;;
29196;SDS011;62796;42.654;23.316;2024-02-14T07:11:47;21.48;;;11.80;;
29196;SDS011;62796;42.654;23.316;2024-02-14T07:14:12;18.60;;;11.50;;
29196;SDS011;62796;42.654;23.316;2024-02-14T07:16:38;22.45;;;13.27;;
29196;SDS011;62796;42.654;23.316;2024-02-14T07:19:03;23.85;;;12.30;;
29196;SDS011;62796;42.654;23.316;2024-02-14T07:21:29;22.02;;;11.10;;
29196;SDS011;62796;42.654;23.316;2024-02-14T07:23:54;22.90;;;12.88;;
29196;SDS011;62796;42.654;23.316;2024-02-14T07:26:20;23.15;;;12.75;;
29196;SDS011;62796;42.654;23.316;2024-02-14T07:28:45;16.90;;;11.20;;
29196;SDS011;62796;42.654;23.316;2024-02-14T07:31:11;25.55;;;12.50;;
29196;SDS011;62796;42.654;23.316;2024-02-14T07:33:36;19.83;;;11.77;;
29196;SDS011;62796;42.654;23.316;2024-02-14T07:36:02;25.83;;;13.25;;
29196;SDS011;62796;42.654;23.316;2024-02-14T07:38:27;16.67;;;9.65;;
29196;SDS011;62796;42.654;23.316;2024-02-14T07:40:53;17.35;;;11.18;;
29196;SDS011;62796;42.654;23.316;2024-02-14T07:43:18;14.07;;;10.35;;
29196;SDS011;62796;42.654;23.316;2024-02-14T07:45:44;17.20;;;9.63;;
29196;SDS011;62796;42.654;23.316;2024-02-14T07:48:09;27.25;;;11.27;;
29196;SDS011;62796;42.654;23.316;2024-02-14T07:50:35;18.13;;;10.70;;
29196;SDS011;62796;42.654;23.316;2024-02-14T07:53:02;13.40;;;9.43;;
29196;SDS011;62796;42.654;23.316;2024-02-14T07:55:27;16.90;;;10.20;;
29196;SDS011;62796;42.654;23.316;2024-02-14T07:57:53;20.02;;;11.52;;
29196;SDS011;62796;42.654;23.316;2024-02-14T08:00:19;17.33;;;10.80;;
29196;SDS011;62796;42.654;23.316;2024-02-14T08:02:48;17.00;;;11.07;;
29196;SDS011;62796;42.654;23.316;2024-02-14T08:05:13;16.63;;;11.00;;
29196;SDS011;62796;42.654;23.316;2024-02-14T08:07:39;20.05;;;11.30;;
29196;SDS011;62796;42.654;23.316;2024-02-14T08:10:05;16.67;;;10.10;;
29196;SDS011;62796;42.654;23.316;2024-02-14T08:12:30;15.43;;;11.15;;
29196;SDS011;62796;42.654;23.316;2024-02-14T08:14:56;15.25;;;10.68;;
29196;SDS011;62796;42.654;23.316;2024-02-14T08:17:21;16.17;;;10.95;;
29196;SDS011;62796;42.654;23.316;2024-02-14T08:19:47;13.93;;;9.27;;
29196;SDS011;62796;42.654;23.316;2024-02-14T08:22:13;14.10;;;9.38;;
29196;SDS011;62796;42.654;23.316;2024-02-14T08:24:38;14.13;;;9.23;;
29196;SDS011;62796;42.654;23.316;2024-02-14T08:27:04;16.23;;;10.02;;
29196;SDS011;62796;42.654;23.316;2024-02-14T08:29:32;12.57;;;9.65;;
29196;SDS011;62796;42.654;23.316;2024-02-14T08:31:58;13.75;;;10.05;;
29196;SDS011;62796;42.654;23.316;2024-02-14T08:34:23;14.15;;;9.90;;
29196;SDS011;62796;42.654;23.316;2024-02-14T08:36:49;14.82;;;9.88;;
29196;SDS011;62796;42.654;23.316;2024-02-14T08:39:14;16.42;;;9.65;;
29196;SDS011;62796;42.654;23.316;2024-02-14T08:41:40;15.68;;;8.93;;
29196;SDS011;62796;42.654;23.316;2024-02-14T08:44:06;16.23;;;9.50;;
29196;SDS011;62796;42.654;23.316;2024-02-14T08:46:31;16.23;;;10.15;;
29196;SDS011;62796;42.654;23.316;2024-02-14T08:48:57;17.67;;;10.90;;
29196;SDS011;62796;42.654;23.316;2024-02-14T08:51:24;18.27;;;9.18;;
29196;SDS011;62796;42.654;23.316;2024-02-14T08:53:50;13.30;;;9.85;;
29196;SDS011;62796;42.654;23.316;2024-02-14T08:56:19;17.10;;;9.98;;
29196;SDS011;62796;42.654;23.316;2024-02-14T08:58:45;23.17;;;12.00;;
29196;SDS011;62796;42.654;23.316;2024-02-14T09:01:10;11.30;;;9.00;;
29196;SDS011;62796;42.654;23.316;2024-02-14T09:03:37;14.10;;;9.15;;
29196;SDS011;62796;42.654;23.316;2024-02-14T09:06:03;14.90;;;9.40;;
29196;SDS011;62796;42.654;23.316;2024-02-14T09:08:29;21.05;;;9.43;;
29196;SDS011;62796;42.654;23.316;2024-02-14T09:10:56;20.75;;;9.90;;
29196;SDS011;62796;42.654;23.316;2024-02-14T09:13:21;19.60;;;10.85;;
29196;SDS011;62796;42.654;23.316;2024-02-14T09:15:47;13.18;;;9.40;;
29196;SDS011;62796;42.654;23.316;2024-02-14T09:18:13;13.57;;;9.30;;
29196;SDS011;62796;42.654;23.316;2024-02-14T09:20:40;16.80;;;9.48;;
29196;SDS011;62796;42.654;23.316;2024-02-14T09:23:05;13.98;;;9.40;;
29196;SDS011;62796;42.654;23.316;2024-02-14T09:25:31;15.60;;;9.38;;
29196;SDS011;62796;42.654;23.316;2024-02-14T09:27:56;11.88;;;9.05;;
29196;SDS011;62796;42.654;23.316;2024-02-14T09:30:22;18.27;;;10.27;;
29196;SDS011;62796;42.654;23.316;2024-02-14T09:32:47;16.13;;;10.13;;
29196;SDS011;62796;42.654;23.316;2024-02-14T09:35:15;14.75;;;10.40;;
29196;SDS011;62796;42.654;23.316;2024-02-14T09:37:41;18.60;;;10.60;;
29196;SDS011;62796;42.654;23.316;2024-02-14T09:40:06;19.92;;;11.43;;
29196;SDS011;62796;42.654;23.316;2024-02-14T09:42:41;17.23;;;10.20;;
29196;SDS011;62796;42.654;23.316;2024-02-14T09:45:10;16.98;;;10.00;;
29196;SDS011;62796;42.654;23.316;2024-02-14T09:47:36;13.82;;;10.15;;
29196;SDS011;62796;42.654;23.316;2024-02-14T09:50:05;14.95;;;9.27;;
29196;SDS011;62796;42.654;23.316;2024-02-14T09:52:32;14.68;;;9.55;;
29196;SDS011;62796;42.654;23.316;2024-02-14T09:54:58;13.32;;;9.40;;
29196;SDS011;62796;42.654;23.316;2024-02-14T09:57:24;14.65;;;9.40;;
29196;SDS011;62796;42.654;23.316;2024-02-14T09:59:51;16.95;;;10.75;;
29196;SDS011;62796;42.654;23.316;2024-02-14T10:02:19;14.13;;;9.90;;
29196;SDS011;62796;42.654;23.316;2024-02-14T10:04:45;16.33;;;9.40;;
29196;SDS011;62796;42.654;23.316;2024-02-14T10:07:10;11.63;;;8.48;;
29196;SDS011;62796;42.654;23.316;2024-02-14T10:09:42;11.85;;;8.82;;
29196;SDS011;62796;42.654;23.316;2024-02-14T10:12:08;15.57;;;9.55;;
29196;SDS011;62796;42.654;23.316;2024-02-14T10:14:37;11.57;;;9.27;;
29196;SDS011;62796;42.654;23.316;2024-02-14T10:17:03;16.00;;;10.43;;
29196;SDS011;62796;42.654;23.316;2024-02-14T10:19:29;21.02;;;11.55;;
29196;SDS011;62796;42.654;23.316;2024-02-14T10:21:56;15.45;;;10.05;;
29196;SDS011;62796;42.654;23.316;2024-02-14T10:24:29;13.05;;;9.13;;
29196;SDS011;62796;42.654;23.316;2024-02-14T10:26:55;13.52;;;8.90;;
29196;SDS011;62796;42.654;23.316;2024-02-14T10:29:22;16.48;;;10.45;;
29196;SDS011;62796;42.654;23.316;2024-02-14T10:31:49;15.68;;;10.05;;
29196;SDS011;62796;42.654;23.316;2024-02-14T10:34:15;13.13;;;9.02;;
29196;SDS011;62796;42.654;23.316;2024-02-14T10:36:42;16.80;;;10.32;;
29196;SDS011;62796;42.654;23.316;2024-02-14T10:39:09;14.18;;;9.23;;
29196;SDS011;62796;42.654;23.316;2024-02-14T10:41:36;16.92;;;9.15;;
29196;SDS011;62796;42.654;23.316;2024-02-14T10:44:02;16.70;;;10.40;;
29196;SDS011;62796;42.654;23.316;2024-02-14T10:46:29;13.73;;;9.23;;
29196;SDS011;62796;42.654;23.316;2024-02-14T10:48:58;16.92;;;9.88;;
29196;SDS011;62796;42.654;23.316;2024-02-14T10:51:29;13.00;;;9.10;;
29196;SDS011;62796;42.654;23.316;2024-02-14T10:53:56;17.95;;;10.20;;
29196;SDS011;62796;42.654;23.316;2024-02-14T10:56:24;16.52;;;9.45;;
29196;SDS011;62796;42.654;23.316;2024-02-14T10:58:54;13.75;;;8.93;;
29196;SDS011;62796;42.654;23.316;2024-02-14T11:01:24;20.65;;;10.82;;
29196;SDS011;62796;42.654;23.316;2024-02-14T11:03:52;17.00;;;9.77;;
29196;SDS011;62796;42.654;23.316;2024-02-14T11:06:18;12.95;;;9.25;;
29196;SDS011;62796;42.654;23.316;2024-02-14T11:08:56;14.32;;;8.80;;
29196;SDS011;62796;42.654;23.316;2024-02-14T11:11:22;19.88;;;9.20;;
29196;SDS011;62796;42.654;23.316;2024-02-14T11:13:52;18.48;;;8.40;;
29196;SDS011;62796;42.654;23.316;2024-02-14T11:16:18;13.30;;;8.82;;
29196;SDS011;62796;42.654;23.316;2024-02-14T11:18:48;15.07;;;9.07;;
29196;SDS011;62796;42.654;23.316;2024-02-14T11:21:17;13.68;;;8.65;;
29196;SDS011;62796;42.654;23.316;2024-02-14T11:23:54;14.07;;;9.07;;
29196;SDS011;62796;42.654;23.316;2024-02-14T11:26:20;18.52;;;8.60;;
29196;SDS011;62796;42.654;23.316;2024-02-14T11:28:48;12.80;;;8.73;;
29196;SDS011;62796;42.654;23.316;2024-02-14T11:31:16;19.50;;;9.25;;
29196;SDS011;62796;42.654;23.316;2024-02-14T11:33:42;16.70;;;9.95;;
29196;SDS011;62796;42.654;23.316;2024-02-14T11:36:10;13.48;;;9.32;;
29196;SDS011;62796;42.654;23.316;2024-02-14T11:38:37;23.38;;;9.30;;
29196;SDS011;62796;42.654;23.316;2024-02-14T11:41:02;13.10;;;8.32;;
29196;SDS011;62796;42.654;23.316;2024-02-14T11:43:28;13.77;;;9.38;;
29196;SDS011;62796;42.654;23.316;2024-02-14T11:45:54;11.88;;;8.25;;
29196;SDS011;62796;42.654;23.316;2024-02-14T11:48:20;16.27;;;9.23;;
29196;SDS011;62796;42.654;23.316;2024-02-14T11:50:46;16.58;;;10.38;;
29196;SDS011;62796;42.654;23.316;2024-02-14T11:53:13;18.42;;;9.60;;
29196;SDS011;62796;42.654;23.316;2024-02-14T11:55:41;23.83;;;10.50;;
29196;SDS011;62796;42.654;23.316;2024-02-14T11:58:10;16.23;;;10.00;;
29196;SDS011;62796;42.654;23.316;2024-02-14T12:00:38;20.02;;;10.35;;
29196;SDS011;62796;42.654;23.316;2024-02-14T12:03:07;15.57;;;9.48;;
29196;SDS011;62796;42.654;23.316;2024-02-14T12:05:37;17.90;;;10.45;;
29196;SDS011;62796;42.654;23.316;2024-02-14T12:08:04;15.10;;;9.23;;
29196;SDS011;62796;42.654;23.316;2024-02-14T12:10:31;17.42;;;9.80;;
29196;SDS011;62796;42.654;23.316;2024-02-14T12:12:57;14.63;;;9.02;;
29196;SDS011;62796;42.654;23.316;2024-02-14T12:15:25;17.80;;;9.45;;
29196;SDS011;62796;42.654;23.316;2024-02-14T12:17:51;19.05;;;9.75;;
29196;SDS011;62796;42.654;23.316;2024-02-14T12:20:21;19.08;;;9.98;;
29196;SDS011;62796;42.654;23.316;2024-02-14T12:22:51;19.63;;;9.48;;
29196;SDS011;62796;42.654;23.316;2024-02-14T12:25:17;22.13;;;8.75;;
29196;SDS011;62796;42.654;23.316;2024-02-14T12:27:42;19.25;;;8.82;;
29196;SDS011;62796;42.654;23.316;2024-02-14T12:30:15;22.05;;;9.30;;
29196;SDS011;62796;42.654;23.316;2024-02-14T12:32:42;13.95;;;8.05;;
29196;SDS011;62796;42.654;23.316;2024-02-14T12:35:07;12.93;;;8.57;;
29196;SDS011;62796;42.654;23.316;2024-02-14T12:37:33;12.18;;;8.32;;
29196;SDS011;62796;42.654;23.316;2024-02-14T12:39:58;11.68;;;8.00;;
29196;SDS011;62796;42.654;23.316;2024-02-14T12:42:24;15.57;;;7.95;;
29196;SDS011;62796;42.654;23.316;2024-02-14T12:44:50;17.15;;;8.60;;
29196;SDS011;62796;42.654;23.316;2024-02-14T12:47:17;11.82;;;8.20;;
29196;SDS011;62796;42.654;23.316;2024-02-14T12:49:43;18.63;;;9.05;;
29196;SDS011;62796;42.654;23.316;2024-02-14T12:52:10;18.35;;;8.80;;
29196;SDS011;62796;42.654;23.316;2024-02-14T12:54:36;15.07;;;8.40;;
29196;SDS011;62796;42.654;23.316;2024-02-14T12:57:01;14.93;;;7.82;;
29196;SDS011;62796;42.654;23.316;2024-02-14T12:59:27;18.50;;;8.43;;
29196;SDS011;62796;42.654;23.316;2024-02-14T13:01:52;19.60;;;8.48;;
29196;SDS011;62796;42.654;23.316;2024-02-14T13:04:18;22.20;;;8.68;;
29196;SDS011;62796;42.654;23.316;2024-02-14T13:06:43;20.55;;;8.68;;
29196;SDS011;62796;42.654;23.316;2024-02-14T13:09:09;14.48;;;8.90;;
29196;SDS011;62796;42.654;23.316;2024-02-14T13:11:35;21.08;;;9.57;;
29196;SDS011;62796;42.654;23.316;2024-02-14T13:14:00;18.65;;;8.35;;
29196;SDS011;62796;42.654;23.316;2024-02-14T13:16:26;22.13;;;8.57;;
29196;SDS011;62796;42.654;23.316;2024-02-14T13:18:52;15.63;;;7.63;;
29196;SDS011;62796;42.654;23.316;2024-02-14T13:21:18;12.57;;;7.97;;
29196;SDS011;62796;42.654;23.316;2024-02-14T13:23:43;23.45;;;8.93;;
29196;SDS011;62796;42.654;23.316;2024-02-14T13:26:09;17.70;;;8.35;;
29196;SDS011;62796;42.654;23.316;2024-02-14T13:28:34;30.60;;;9.73;;
29196;SDS011;62796;42.654;23.316;2024-02-14T13:31:00;20.23;;;9.85;;
29196;SDS011;62796;42.654;23.316;2024-02-14T13:33:25;23.88;;;10.13;;
29196;SDS011;62796;42.654;23.316;2024-02-14T13:35:51;25.38;;;10.68;;
29196;SDS011;62796;42.654;23.316;2024-02-14T13:38:16;28.40;;;11.57;;
29196;SDS011;62796;42.654;23.316;2024-02-14T13:40:42;26.08;;;11.18;;
29196;SDS011;62796;42.654;23.316;2024-02-14T13:43:08;23.52;;;10.63;;
29196;SDS011;62796;42.654;23.316;2024-02-14T13:45:44;23.38;;;10.70;;
29196;SDS011;62796;42.654;23.316;2024-02-14T13:48:11;25.95;;;11.75;;
29196;SDS011;62796;42.654;23.316;2024-02-14T13:50:37;28.73;;;13.07;;
29196;SDS011;62796;42.654;23.316;2024-02-14T13:53:03;23.60;;;11.00;;
29196;SDS011;62796;42.654;23.316;2024-02-14T13:55:29;19.60;;;10.32;;
29196;SDS011;62796;42.654;23.316;2024-02-14T13:57:54;17.60;;;9.00;;
29196;SDS011;62796;42.654;23.316;2024-02-14T14:00:19;15.50;;;9.95;;
29196;SDS011;62796;42.654;23.316;2024-02-14T14:02:45;21.63;;;10.73;;
29196;SDS011;62796;42.654;23.316;2024-02-14T14:05:11;24.58;;;10.57;;
29196;SDS011;62796;42.654;23.316;2024-02-14T14:07:40;18.92;;;10.07;;
29196;SDS011;62796;42.654;23.316;2024-02-14T14:10:05;15.98;;;9.57;;